Valentino Ríos

Recruteur - Tristán Suárez
20 Nov 2027
Samedi
Processus

Personnalité

Adaptabilité (17) Ambition (13) Controverse (16) Loyauté (17) Pression (17) Professionnalisme (12) Sportivité (6) Tempérament (8)

Profil

Style d'entraînement Démocratique
Diplôme National A
Détermination 5
Gestion des joueurs 3
Motivation 5
Discipline 3
Satisfaction professionnelle
100%
Fatigue
0%
Rôle Recruteur
Salaire 26.5K p/s
Contrat 14.03.2028

Performance

Comportement Bon
Efficacité de l'entraînement
21%
Développement des joueurs
25%
Prévention des blessures
15%
Mise en place tactique
10%

Événements récents

A participé à une réunion de recrutement 7j
A participé à une réunion de recrutement 14j
A participé à une réunion de recrutement 21j
A participé à une réunion de recrutement 28j
A participé à une réunion de recrutement 35j
A participé à une réunion de recrutement 42j
A participé à une réunion de recrutement 49j
A participé à une réunion de recrutement 56j

Suivi en cours

162
Joueur Club Statut Capacité Confiance Observé Dernière observation Dernier vote
Emiliano Bermúdez Oriental Actif 93 / 99 40% 2 29.11.2026 -
Fernando Abarzúa San Luis Actif 67 / 89 40% 2 29.11.2026 -
Elias Manoel Tijuana Actif 113 / 87 40% 1 29.11.2026 -
Luca Franco Arsenal Actif 107 / 99 40% 1 29.11.2026 -
Francisco Coirolo Atenas Actif 85 / 103 40% 2 27.11.2026 -
Mauricio Chanampa Trujillanos Actif 80 / 76 40% 2 26.11.2026 -
Enzo Vázquez Central Norte Actif 108 / 94 40% 1 26.11.2026 -
Iván Valenzuela Universidad Catolica Actif 94 / 94 40% 1 25.11.2026 -
Santiago Sala Güemes Actif 96 / 126 40% 2 24.11.2026 -
Mauro Martín Progreso Actif 109 / 101 40% 1 24.11.2026 -
Kevin Lewis Liverpool Montevideo Actif 116 / 113 40% 1 24.11.2026 -
Franco Fagúndez Estudiantes Actif 130 / 104 40% 1 24.11.2026 -
Enzo Vlaeminch Oriental Actif 100 / 86 40% 2 22.11.2026 -
Enzo González Defensores Actif 110 / 115 40% 1 22.11.2026 -
Tomás Moschion Albion Actif 94 / 95 40% 1 22.11.2026 -
Santiago Videla Iquique Actif 65 / 75 40% 1 21.11.2026 -
Alex Payares Patriotas Actif 86 / 79 40% 1 21.11.2026 -
Iván Cartés Uruguay Montevideo Actif 97 / 79 40% 3 20.11.2026 -
Sebastián Jaume Albion Actif 87 / 102 40% 1 20.11.2026 -
Axel Prado Cerro Largo Actif 96 / 108 40% 1 20.11.2026 -
Guillermo Gandolfo Central Espanol Actif 98 / 94 40% 1 20.11.2026 -
Juan Sebastián Rivero Progreso Actif 114 / 105 40% 2 19.11.2026 -
Jeremías Silveira Fenix Actif 103 / 85 40% 1 19.11.2026 -
Yamil García Rampla Juniors Actif 91 / 103 40% 1 18.11.2026 -
Máximo Soto Antofagasta Actif 94 / 84 40% 1 18.11.2026 -
Facundo Butti Cerro Actif 101 / 101 40% 1 17.11.2026 -
Braian Aranda Agropecuario Argentino Actif 94 / 97 40% 1 17.11.2026 -
Facundo Vila Estudiantes Actif 105 / 112 40% 1 15.11.2026 -
Norman Díaz Artigas Actif 93 / 80 40% 2 14.11.2026 -
Nahuel Marzochi Colon Actif 105 / 100 40% 1 14.11.2026 -
Agustín Lastra Estudiantes Actif 117 / 93 40% 2 13.11.2026 -
Ángel González Libertad Actif 104 / 95 40% 1 13.11.2026 -
Ignacio Pereira Danubio Actif 91 / 106 40% 2 12.11.2026 -
Diego Capdevila Cerro Actif 100 / 84 40% 2 12.11.2026 -
Matías Núñez Atenas Actif 109 / 86 40% 1 12.11.2026 -
Juan Moreno La Luz Actif 111 / 111 40% 1 12.11.2026 -
Sebastián Lentinelly Olimpia Actif 121 / 111 40% 2 11.11.2026 -
Walter Domínguez Deportivo Maldonado Actif 83 / 83 40% 2 10.11.2026 -
Jeremías Vargas Atletico Goianiense Actif 82 / 97 40% 3 10.11.2026 -
Lucas González Nacional Actif 96 / 109 40% 2 08.11.2026 -
Blas Armoa Gimnasia y Esgrima Actif 107 / 118 40% 2 07.11.2026 -
Ezequiel Almirón Estudiantes Actif 125 / 120 40% 1 07.11.2026 -
Lucas Dogliotti La Luz Actif 87 / 110 40% 1 05.11.2026 -
Emiliano Ancheta Nacional Actif 119 / 123 40% 1 05.11.2026 -
Federico Álvarez Atlanta Actif 120 / 117 40% 1 05.11.2026 -
Thiago Calone All Boys Actif 112 / 96 40% 1 05.11.2026 -
Denilson Ojeda Carabobo Actif 78 / 90 40% 1 03.11.2026 -
Martín Coirolo Colon Actif 93 / 96 40% 1 03.11.2026 -
Luciano Batista Cerrito Actif 100 / 107 40% 1 03.11.2026 -
Emiliano Márquez Central Espanol Actif 97 / 107 40% 3 02.11.2026 -
Julián Cosi Madryn Actif 124 / 126 40% 1 02.11.2026 -
Guido Sosa Atenas Actif 97 / 94 40% 1 02.11.2026 -
Lucas Verza Olimpia Actif 110 / 111 40% 1 02.11.2026 -
Francisco Ginella Albion Actif 105 / 104 40% 1 30.10.2026 -
Rodrigo Cabrera River Plate Actif 106 / 113 40% 1 30.10.2026 -
Ismael Tejería Rampla Juniors Actif 83 / 91 40% 2 29.10.2026 -
Enzo Castillo Liverpool Montevideo Actif 93 / 104 40% 1 29.10.2026 -
Maximiliano Zelaya Miramar Misiones Actif 81 / 86 40% 2 27.10.2026 -
Santiago Laquidain Liverpool Montevideo Actif 93 / 97 40% 1 27.10.2026 -
Ángel Maciel Tacuarembo Actif 95 / 95 40% 1 26.10.2026 -
Augusto Bottini Almirante Brown Actif 95 / 106 40% 1 26.10.2026 -
Ronald Álvarez Colon Actif 90 / 99 40% 1 25.10.2026 -
Facundo Centurión Alvarado Actif 100 / 90 40% 1 25.10.2026 -
Celso Castillo Aragua Actif 74 / 84 40% 1 23.10.2026 -
Igor Leonardi Montevideo City Torque Actif 73 / 87 40% 1 23.10.2026 -
Aldo Pérez Guarani Actif 117 / 117 40% 2 22.10.2026 -
Nicolás Forastiero Deportivo Maldonado Actif 99 / 103 40% 2 22.10.2026 -
Jonathan Baeza La Luz Actif 88 / 91 40% 2 22.10.2026 -
Julián López Defensa y Justicia Actif 118 / 126 40% 1 22.10.2026 -
Joaquín Camejo River Plate Actif 92 / 94 40% 1 21.10.2026 -
Vicente Bernedo Universidad Catolica Actif 100 / 108 40% 2 19.10.2026 -
Franco Grigera Alianza Petrolera Actif 75 / 83 40% 2 19.10.2026 -
Agustín Rivero Aragua Actif 61 / 80 40% 1 18.10.2026 -
Ángel Espínola Sportivo Luqueno Actif 91 / 105 40% 1 18.10.2026 -
Francisco Salerno Defensores Unidos Actif 99 / 109 40% 1 17.10.2026 -
Adriano Freitas Deportivo Maldonado Actif 96 / 93 40% 3 16.10.2026 -
Lukas González Cerro Largo Actif 76 / 87 40% 1 16.10.2026 -
Francisco Casanova Cerrito Actif 117 / 95 40% 3 13.10.2026 -
Alan Acevedo Fenix Actif 97 / 94 40% 1 13.10.2026 -
Alejo Antilef Penarol Actif 113 / 100 40% 1 13.10.2026 -
Cristian Britos Rentistas Actif 55 / 85 40% 1 12.10.2026 -
Axel Pérez Cerrito Actif 100 / 107 40% 2 11.10.2026 -
Franco Pérez Boston River Actif 102 / 97 40% 2 09.10.2026 -
Lucas Machado Defensor Sporting Actif 111 / 103 40% 2 05.10.2026 -
Facundo Melillán Güemes Actif 106 / 118 40% 1 05.10.2026 -
Federico Losas Chacarita Juniors Actif 105 / 110 40% 3 04.10.2026 -
Lucas Ortíz Uruguay Montevideo Actif 81 / 92 40% 1 01.10.2026 -
Facundo Pérez Juventud Actif 93 / 96 40% 1 29.09.2026 -
Rafael Sangiovani Metropolitanos Actif 96 / 89 40% 1 29.09.2026 -
Santiago Godoy 12 de Octubre Actif 92 / 73 40% 2 27.09.2026 -
Sebastián Giraldo Depor Actif 96 / 97 40% 1 27.09.2026 -
David Agudelo Depor Actif 111 / 90 40% 1 26.09.2026 -
Miguel Silva Carabobo Actif 118 / 116 40% 1 26.09.2026 -
Rafael Sánchez Zulia Actif 97 / 76 40% 1 25.09.2026 -
Lautaro Centurión Fenix Actif 101 / 101 40% 1 24.09.2026 -
Alexei Dominguez Pachuca Actif 112 / 114 40% 2 23.09.2026 -
Fernando Tapia Club America Actif 119 / 128 40% 1 20.09.2026 -
Franklin Mosquera Jaguares Actif 93 / 111 40% 1 19.09.2026 -
Hugo Gaona Sportivo Luqueno Actif 96 / 98 40% 1 19.09.2026 -
Erik López Olimpia Actif 119 / 101 40% 1 19.09.2026 -
Ayrton Castro Miramar Misiones Actif 94 / 88 40% 1 18.09.2026 -
Jairo O'Neill Boston River Actif 80 / 95 40% 1 18.09.2026 -
Efraín Ustariz Jaguares Actif 90 / 104 40% 1 18.09.2026 -
Ariel López Deportivo Pereira Actif 77 / 79 40% 1 15.09.2026 -
Máximo Alonso Central Espanol Actif 109 / 102 40% 2 14.09.2026 -
Lautaro Urtasún Iquique Actif 74 / 87 40% 1 14.09.2026 -
Agustín Olavarría Colon Actif 82 / 105 40% 1 13.09.2026 -
Marlon Flórez Jaguares Actif 69 / 88 40% 1 12.09.2026 -
Favio Cabral Mitre Actif 119 / 117 40% 1 12.09.2026 -
Rodrigo Muníz Uruguay Montevideo Actif 102 / 105 40% 1 12.09.2026 -
Facundo Barreto Colon Actif 90 / 85 40% 1 11.09.2026 -
Kevin Alaniz Rampla Juniors Actif 80 / 103 40% 1 11.09.2026 -
Máximo Lorenzi Plaza Colonia Actif 93 / 92 40% 1 10.09.2026 -
Enzo Porro Wanderers Actif 101 / 104 40% 1 10.09.2026 -
Diego Vicente La Luz Actif 93 / 104 40% 1 09.09.2026 -
Ignacio Neira Rampla Juniors Actif 87 / 110 40% 1 09.09.2026 -
Martín Ginzo Deportivo Maldonado Actif 92 / 101 40% 2 08.09.2026 -
Rodrigo Trejo Juventud Actif 85 / 102 40% 1 08.09.2026 -
Emanuel Cecchini Juventud Actif 114 / 103 40% 1 08.09.2026 -
Sebastián Guerra Barranquilla Actif 91 / 94 40% 1 07.09.2026 -
Franco Carretero Deportivo Lara Actif 95 / 101 40% 1 06.09.2026 -
Sebastián Moreno Patriotas Actif 94 / 94 40% 1 04.09.2026 -
Cristóbal Guerra San Marcos de Arica Actif 112 / 112 40% 1 04.09.2026 -
Santiago Homenchenko Queretaro Actif 124 / 109 40% 1 04.09.2026 -
Nicolás Rossi Juventud Actif 115 / 122 40% 2 03.09.2026 -
Nahuel Manganelli San Martín Actif 98 / 97 40% 1 03.09.2026 -
Mathías de Ritis San Lorenzo Actif 120 / 108 40% 1 02.09.2026 -
Lautaro Amadé Defensa y Justicia Actif 101 / 101 40% 1 02.09.2026 -
Bautista Arricau Audax Italiano Actif 89 / 109 40% 2 01.09.2026 -
José Rivas Gamboa Trujillanos Actif 112 / 87 40% 1 01.09.2026 -
Lautaro Maldonado Instituto Actif 117 / 117 40% 1 31.08.2026 -
Emanuel Sittaro Instituto Actif 99 / 105 40% 1 28.08.2026 -
Luis Ureta Universidad Catolica Actif 98 / 101 40% 1 28.08.2026 -
Williams Barlasina Fortaleza CEIF Actif 96 / 125 40% 2 27.08.2026 -
Diego Barbosa Toluca Actif 111 / 123 40% 1 27.08.2026 -
Owen Falconis Cerrito Actif 112 / 105 40% 1 26.08.2026 -
Daniel Marín Alianza Petrolera Actif 72 / 95 40% 1 26.08.2026 -
Briam Acosta Albion Actif 99 / 86 40% 1 23.08.2026 -
Weibmar Asprilla Independiente Medellin Actif 125 / 108 40% 2 22.08.2026 -
Ignacio Yepez Cerrito Actif 99 / 110 40% 1 22.08.2026 -
Francisco Sagardia Wanderers Actif 90 / 81 40% 1 22.08.2026 -
David Shrem Toluca Actif 87 / 98 40% 1 20.08.2026 -
Agustín Pereira Albion Actif 123 / 115 40% 1 19.08.2026 -
Steven Pabón Trujillanos Actif 87 / 95 40% 1 18.08.2026 -
Santiago Benítez Wanderers Actif 97 / 107 40% 1 18.08.2026 -
Simón Meza Cerrito Actif 69 / 75 40% 1 17.08.2026 -
Emiliano García Uruguay Montevideo Actif 95 / 95 40% 1 15.08.2026 -
Richard Torales Guarani Actif 108 / 102 40% 1 14.08.2026 -
Francisco Martinicorena Uruguay Montevideo Actif 103 / 81 40% 1 14.08.2026 -
Miguel Hurtado Valledupar Actif 106 / 106 40% 1 14.08.2026 -
Alejandro Amaya Patriotas Actif 104 / 92 40% 1 14.08.2026 -
Santiago Roggero Gimnasia y Esgrima Actif 93 / 103 40% 1 13.08.2026 -
Santiago Rodríguez Fenix Actif 75 / 78 40% 1 12.08.2026 -
Santiago García Plaza Colonia Actif 87 / 80 40% 1 10.08.2026 -
Brian González Atenas Actif 93 / 103 40% 1 09.08.2026 -
Jorge Herrera Valledupar Actif 123 / 115 40% 1 09.08.2026 -
Juan Miguel Betancourth Deportivo Pereira Actif 75 / 78 40% 2 07.08.2026 -
Jaime Mora Envigado Actif 108 / 100 40% 1 07.08.2026 -
Jaime Acosta Barranquilla Actif 105 / 97 40% 1 04.08.2026 -
Dewar Victoria Millonarios Actif 115 / 115 40% 1 04.08.2026 -
Gary Silva Progreso Actif 83 / 98 40% 1 03.08.2026 -
Duk Atlas Actif 118 / 120 40% 1 01.08.2026 -